sensor_id;sensor_type;location;lat;lon;timestamp;pressure;altitude;pressure_sealevel;temperature;humidity
45793;BME280;31495;42.740;22.908;2023-02-04T00:00:35;92925.16;;;-0.24;72.32
45793;BME280;31495;42.740;22.908;2023-02-04T00:01:37;92921.53;;;-0.21;72.23
45793;BME280;31495;42.740;22.908;2023-02-04T00:02:36;92921.19;;;-0.26;72.72
45793;BME280;31495;42.740;22.908;2023-02-04T00:03:37;92924.66;;;-0.27;73.01
45793;BME280;31495;42.740;22.908;2023-02-04T00:04:36;92896.09;;;-0.47;73.03
45793;BME280;31495;42.740;22.908;2023-02-04T00:05:35;92900.31;;;-0.30;73.13
45793;BME280;31495;42.740;22.908;2023-02-04T00:06:35;92913.09;;;-0.22;73.11
45793;BME280;31495;42.740;22.908;2023-02-04T00:07:34;92927.69;;;-0.24;73.38
45793;BME280;31495;42.740;22.908;2023-02-04T00:08:35;92920.06;;;-0.24;72.68
45793;BME280;31495;42.740;22.908;2023-02-04T00:09:36;92876.56;;;-0.47;73.07
45793;BME280;31495;42.740;22.908;2023-02-04T00:10:36;92899.81;;;-0.33;73.10
45793;BME280;31495;42.740;22.908;2023-02-04T00:11:35;92882.06;;;-0.51;73.50
45793;BME280;31495;42.740;22.908;2023-02-04T00:12:34;92900.56;;;-0.41;72.89
45793;BME280;31495;42.740;22.908;2023-02-04T00:13:34;92914.78;;;-0.30;72.69
45793;BME280;31495;42.740;22.908;2023-02-04T00:14:33;92877.13;;;-0.53;72.81
45793;BME280;31495;42.740;22.908;2023-02-04T00:15:32;92853.44;;;-0.62;71.80
45793;BME280;31495;42.740;22.908;2023-02-04T00:16:32;92907.06;;;-0.21;71.66
45793;BME280;31495;42.740;22.908;2023-02-04T00:17:31;92875.00;;;-0.40;70.83
45793;BME280;31495;42.740;22.908;2023-02-04T00:18:31;92871.19;;;-0.44;70.42
45793;BME280;31495;42.740;22.908;2023-02-04T00:19:31;92876.16;;;-0.34;70.42
45793;BME280;31495;42.740;22.908;2023-02-04T00:20:30;92890.19;;;-0.22;70.78
45793;BME280;31495;42.740;22.908;2023-02-04T00:21:29;92912.97;;;-0.12;70.78
45793;BME280;31495;42.740;22.908;2023-02-04T00:22:29;92887.16;;;-0.25;70.76
45793;BME280;31495;42.740;22.908;2023-02-04T00:23:28;92910.94;;;-0.08;71.06
45793;BME280;31495;42.740;22.908;2023-02-04T00:24:29;92896.25;;;-0.23;70.96
45793;BME280;31495;42.740;22.908;2023-02-04T00:25:29;92841.66;;;-0.63;71.46
45793;BME280;31495;42.740;22.908;2023-02-04T00:26:28;92904.50;;;-0.21;71.66
45793;BME280;31495;42.740;22.908;2023-02-04T00:27:28;92887.31;;;-0.27;71.45
45793;BME280;31495;42.740;22.908;2023-02-04T00:28:27;92902.97;;;-0.13;71.41
45793;BME280;31495;42.740;22.908;2023-02-04T00:29:26;92878.91;;;-0.27;71.02
45793;BME280;31495;42.740;22.908;2023-02-04T00:30:29;92908.09;;;-0.05;70.71
45793;BME280;31495;42.740;22.908;2023-02-04T00:31:29;92897.28;;;-0.07;70.75
45793;BME280;31495;42.740;22.908;2023-02-04T00:32:29;92840.53;;;-0.42;70.71
45793;BME280;31495;42.740;22.908;2023-02-04T00:33:28;92900.16;;;-0.02;71.16
45793;BME280;31495;42.740;22.908;2023-02-04T00:34:27;92902.41;;;0.01;71.44
45793;BME280;31495;42.740;22.908;2023-02-04T00:35:27;92841.94;;;-0.40;71.29
45793;BME280;31495;42.740;22.908;2023-02-04T00:36:27;92848.53;;;-0.29;71.42
45793;BME280;31495;42.740;22.908;2023-02-04T00:37:26;92835.63;;;-0.35;71.91
45793;BME280;31495;42.740;22.908;2023-02-04T00:38:26;92867.34;;;-0.13;72.00
45793;BME280;31495;42.740;22.908;2023-02-04T00:39:25;92881.75;;;0.04;71.91
45793;BME280;31495;42.740;22.908;2023-02-04T00:40:25;92877.75;;;0.02;71.88
45793;BME280;31495;42.740;22.908;2023-02-04T00:41:24;92883.97;;;-0.01;72.06
45793;BME280;31495;42.740;22.908;2023-02-04T00:42:23;92813.84;;;-0.38;72.17
45793;BME280;31495;42.740;22.908;2023-02-04T00:43:23;92892.13;;;0.11;72.30
45793;BME280;31495;42.740;22.908;2023-02-04T00:44:22;92868.06;;;-0.03;72.30
45793;BME280;31495;42.740;22.908;2023-02-04T00:45:22;92880.81;;;0.05;71.90
45793;BME280;31495;42.740;22.908;2023-02-04T00:46:22;92859.91;;;-0.07;71.85
45793;BME280;31495;42.740;22.908;2023-02-04T00:47:21;92864.25;;;0.01;71.94
45793;BME280;31495;42.740;22.908;2023-02-04T00:48:21;92856.13;;;-0.03;72.16
45793;BME280;31495;42.740;22.908;2023-02-04T00:49:20;92829.84;;;-0.20;72.21
45793;BME280;31495;42.740;22.908;2023-02-04T00:50:19;92886.56;;;0.15;72.31
45793;BME280;31495;42.740;22.908;2023-02-04T00:51:19;92810.88;;;-0.25;71.90
45793;BME280;31495;42.740;22.908;2023-02-04T00:52:18;92866.81;;;0.09;71.85
45793;BME280;31495;42.740;22.908;2023-02-04T00:53:18;92883.28;;;0.23;71.41
45793;BME280;31495;42.740;22.908;2023-02-04T00:54:18;92873.72;;;0.25;71.35
45793;BME280;31495;42.740;22.908;2023-02-04T00:55:18;92874.81;;;0.23;71.36
45793;BME280;31495;42.740;22.908;2023-02-04T00:56:17;92873.84;;;0.15;71.48
45793;BME280;31495;42.740;22.908;2023-02-04T00:57:17;92874.63;;;0.16;71.72
45793;BME280;31495;42.740;22.908;2023-02-04T00:58:16;92862.84;;;0.07;71.78
45793;BME280;31495;42.740;22.908;2023-02-04T00:59:16;92855.69;;;0.02;71.38
45793;BME280;31495;42.740;22.908;2023-02-04T01:00:16;92855.50;;;-0.05;71.07
45793;BME280;31495;42.740;22.908;2023-02-04T01:01:16;92872.22;;;0.06;70.62
45793;BME280;31495;42.740;22.908;2023-02-04T01:02:15;92848.66;;;-0.04;70.44
45793;BME280;31495;42.740;22.908;2023-02-04T01:03:15;92871.31;;;0.15;70.18
45793;BME280;31495;42.740;22.908;2023-02-04T01:04:14;92858.84;;;0.04;69.90
45793;BME280;31495;42.740;22.908;2023-02-04T01:05:14;92843.25;;;-0.01;69.98
45793;BME280;31495;42.740;22.908;2023-02-04T01:06:13;92836.72;;;-0.04;70.10
45793;BME280;31495;42.740;22.908;2023-02-04T01:07:13;92872.72;;;0.18;70.22
45793;BME280;31495;42.740;22.908;2023-02-04T01:08:12;92865.44;;;0.15;70.35
45793;BME280;31495;42.740;22.908;2023-02-04T01:09:12;92866.56;;;0.21;70.51
45793;BME280;31495;42.740;22.908;2023-02-04T01:10:11;92863.22;;;0.20;70.44
45793;BME280;31495;42.740;22.908;2023-02-04T01:11:11;92845.72;;;0.17;70.19
45793;BME280;31495;42.740;22.908;2023-02-04T01:12:10;92849.03;;;0.17;70.20
45793;BME280;31495;42.740;22.908;2023-02-04T01:13:10;92803.00;;;-0.14;70.58
45793;BME280;31495;42.740;22.908;2023-02-04T01:14:09;92862.09;;;0.23;70.76
45793;BME280;31495;42.740;22.908;2023-02-04T01:15:09;92863.06;;;0.22;70.40
45793;BME280;31495;42.740;22.908;2023-02-04T01:16:09;92842.53;;;0.15;70.82
45793;BME280;31495;42.740;22.908;2023-02-04T01:17:08;92853.38;;;0.25;70.33
45793;BME280;31495;42.740;22.908;2023-02-04T01:18:08;92837.44;;;0.15;70.32
45793;BME280;31495;42.740;22.908;2023-02-04T01:19:07;92831.22;;;0.09;70.35
45793;BME280;31495;42.740;22.908;2023-02-04T01:20:08;92833.31;;;0.14;70.35
45793;BME280;31495;42.740;22.908;2023-02-04T01:21:08;92828.66;;;0.09;70.38
45793;BME280;31495;42.740;22.908;2023-02-04T01:22:07;92813.44;;;-0.25;71.10
45793;BME280;31495;42.740;22.908;2023-02-04T01:23:07;92808.84;;;-0.22;70.94
45793;BME280;31495;42.740;22.908;2023-02-04T01:24:07;92807.72;;;-0.27;71.27
45793;BME280;31495;42.740;22.908;2023-02-04T01:25:07;92838.09;;;-0.17;71.42
45793;BME280;31495;42.740;22.908;2023-02-04T01:26:06;92834.38;;;-0.31;71.50
45793;BME280;31495;42.740;22.908;2023-02-04T01:27:06;92847.94;;;-0.23;72.19
45793;BME280;31495;42.740;22.908;2023-02-04T01:28:05;92847.50;;;-0.18;72.01
45793;BME280;31495;42.740;22.908;2023-02-04T01:29:04;92834.78;;;-0.18;72.09
45793;BME280;31495;42.740;22.908;2023-02-04T01:30:05;92833.31;;;-0.21;71.96
45793;BME280;31495;42.740;22.908;2023-02-04T01:31:04;92838.59;;;-0.14;71.97
45793;BME280;31495;42.740;22.908;2023-02-04T01:32:04;92820.75;;;-0.22;71.97
45793;BME280;31495;42.740;22.908;2023-02-04T01:33:03;92835.16;;;-0.05;72.01
45793;BME280;31495;42.740;22.908;2023-02-04T01:34:03;92830.41;;;0.01;71.92
45793;BME280;31495;42.740;22.908;2023-02-04T01:35:03;92838.31;;;-0.03;72.10
45793;BME280;31495;42.740;22.908;2023-02-04T01:36:03;92806.09;;;-0.28;72.04
45793;BME280;31495;42.740;22.908;2023-02-04T01:37:02;92809.47;;;-0.28;72.34
45793;BME280;31495;42.740;22.908;2023-02-04T01:38:01;92830.47;;;-0.17;72.68
45793;BME280;31495;42.740;22.908;2023-02-04T01:39:01;92815.81;;;-0.24;73.07
45793;BME280;31495;42.740;22.908;2023-02-04T01:40:02;92830.50;;;-0.09;73.13
45793;BME280;31495;42.740;22.908;2023-02-04T01:41:02;92788.91;;;-0.34;73.71
45793;BME280;31495;42.740;22.908;2023-02-04T01:42:03;92810.91;;;-0.17;74.07
45793;BME280;31495;42.740;22.908;2023-02-04T01:43:03;92811.41;;;-0.13;73.92
45793;BME280;31495;42.740;22.908;2023-02-04T01:44:03;92818.41;;;-0.15;74.19
45793;BME280;31495;42.740;22.908;2023-02-04T01:45:03;92795.09;;;-0.37;74.63
45793;BME280;31495;42.740;22.908;2023-02-04T01:46:07;92778.56;;;-0.41;73.93
45793;BME280;31495;42.740;22.908;2023-02-04T01:47:08;92823.31;;;-0.22;74.13
45793;BME280;31495;42.740;22.908;2023-02-04T01:48:08;92815.28;;;-0.35;75.08
45793;BME280;31495;42.740;22.908;2023-02-04T01:49:08;92787.50;;;-0.63;75.28
45793;BME280;31495;42.740;22.908;2023-02-04T01:50:12;92812.06;;;-0.46;75.91
45793;BME280;31495;42.740;22.908;2023-02-04T01:51:15;92818.44;;;-0.42;75.80
45793;BME280;31495;42.740;22.908;2023-02-04T01:52:16;92812.97;;;-0.55;76.53
45793;BME280;31495;42.740;22.908;2023-02-04T01:53:20;92828.22;;;-0.55;76.31
45793;BME280;31495;42.740;22.908;2023-02-04T01:54:20;92795.38;;;-0.75;76.58
45793;BME280;31495;42.740;22.908;2023-02-04T01:55:23;92805.75;;;-0.68;76.90
45793;BME280;31495;42.740;22.908;2023-02-04T01:56:25;92814.81;;;-0.39;76.20
45793;BME280;31495;42.740;22.908;2023-02-04T01:57:25;92806.94;;;-0.54;76.24
45793;BME280;31495;42.740;22.908;2023-02-04T01:58:25;92759.78;;;-0.83;76.43
45793;BME280;31495;42.740;22.908;2023-02-04T01:59:25;92803.25;;;-0.60;76.21
45793;BME280;31495;42.740;22.908;2023-02-04T02:00:30;92774.56;;;-0.78;76.63
45793;BME280;31495;42.740;22.908;2023-02-04T02:01:41;92802.50;;;-0.52;76.80
45793;BME280;31495;42.740;22.908;2023-02-04T02:02:46;92787.03;;;-0.67;76.93
45793;BME280;31495;42.740;22.908;2023-02-04T02:03:46;92785.84;;;-0.72;77.27
45793;BME280;31495;42.740;22.908;2023-02-04T02:04:46;92807.84;;;-0.63;77.59
45793;BME280;31495;42.740;22.908;2023-02-04T02:05:48;92804.66;;;-0.65;77.33
45793;BME280;31495;42.740;22.908;2023-02-04T02:06:54;92798.66;;;-0.56;77.18
45793;BME280;31495;42.740;22.908;2023-02-04T02:07:57;92761.72;;;-0.77;77.49
45793;BME280;31495;42.740;22.908;2023-02-04T02:08:58;92767.97;;;-0.89;77.91
45793;BME280;31495;42.740;22.908;2023-02-04T02:09:58;92762.56;;;-0.94;77.86
45793;BME280;31495;42.740;22.908;2023-02-04T02:10:57;92763.88;;;-0.90;78.33
45793;BME280;31495;42.740;22.908;2023-02-04T02:11:57;92784.44;;;-0.75;78.47
45793;BME280;31495;42.740;22.908;2023-02-04T02:12:57;92762.31;;;-0.83;78.77
45793;BME280;31495;42.740;22.908;2023-02-04T02:13:56;92748.34;;;-0.87;78.74
45793;BME280;31495;42.740;22.908;2023-02-04T02:14:56;92768.75;;;-0.70;78.69
45793;BME280;31495;42.740;22.908;2023-02-04T02:15:57;92760.31;;;-0.71;79.01
45793;BME280;31495;42.740;22.908;2023-02-04T02:16:57;92714.91;;;-1.00;78.78
45793;BME280;31495;42.740;22.908;2023-02-04T02:17:56;92749.22;;;-0.70;78.42
45793;BME280;31495;42.740;22.908;2023-02-04T02:18:56;92760.50;;;-0.64;78.47
45793;BME280;31495;42.740;22.908;2023-02-04T02:19:57;92765.44;;;-0.63;78.71
45793;BME280;31495;42.740;22.908;2023-02-04T02:20:58;92739.44;;;-0.83;78.40
45793;BME280;31495;42.740;22.908;2023-02-04T02:22:06;92761.47;;;-0.65;78.72
45793;BME280;31495;42.740;22.908;2023-02-04T02:24:29;92755.06;;;-0.69;78.76
45793;BME280;31495;42.740;22.908;2023-02-04T02:25:30;92755.22;;;-0.71;79.42
45793;BME280;31495;42.740;22.908;2023-02-04T02:26:30;92696.03;;;-0.98;78.94
45793;BME280;31495;42.740;22.908;2023-02-04T02:27:29;92743.34;;;-0.70;78.69
45793;BME280;31495;42.740;22.908;2023-02-04T02:28:29;92748.56;;;-0.72;79.00
45793;BME280;31495;42.740;22.908;2023-02-04T02:29:28;92725.28;;;-0.85;79.00
45793;BME280;31495;42.740;22.908;2023-02-04T02:30:28;92727.19;;;-0.87;78.92
45793;BME280;31495;42.740;22.908;2023-02-04T02:31:28;92709.03;;;-1.01;79.61
45793;BME280;31495;42.740;22.908;2023-02-04T02:32:27;92702.25;;;-1.18;79.66
45793;BME280;31495;42.740;22.908;2023-02-04T02:33:26;92758.59;;;-0.70;79.90
45793;BME280;31495;42.740;22.908;2023-02-04T02:34:26;92740.13;;;-0.72;79.61
45793;BME280;31495;42.740;22.908;2023-02-04T02:35:26;92743.44;;;-0.80;79.30
45793;BME280;31495;42.740;22.908;2023-02-04T02:36:26;92759.91;;;-0.58;78.85
45793;BME280;31495;42.740;22.908;2023-02-04T02:37:26;92739.38;;;-0.65;78.44
45793;BME280;31495;42.740;22.908;2023-02-04T02:38:25;92757.34;;;-0.58;78.94
45793;BME280;31495;42.740;22.908;2023-02-04T02:39:25;92721.84;;;-0.76;78.68
45793;BME280;31495;42.740;22.908;2023-02-04T02:40:25;92757.06;;;-0.55;78.68
45793;BME280;31495;42.740;22.908;2023-02-04T02:41:25;92755.13;;;-0.61;78.98
45793;BME280;31495;42.740;22.908;2023-02-04T02:42:24;92752.88;;;-0.64;78.72
45793;BME280;31495;42.740;22.908;2023-02-04T02:43:26;92731.69;;;-0.81;79.14
45793;BME280;31495;42.740;22.908;2023-02-04T02:44:26;92703.47;;;-1.04;79.28
45793;BME280;31495;42.740;22.908;2023-02-04T02:45:29;92736.03;;;-0.73;79.50
45793;BME280;31495;42.740;22.908;2023-02-04T02:46:29;92726.00;;;-0.75;79.54
45793;BME280;31495;42.740;22.908;2023-02-04T02:47:29;92666.72;;;-1.18;79.76
45793;BME280;31495;42.740;22.908;2023-02-04T02:48:28;92689.63;;;-1.10;80.12
45793;BME280;31495;42.740;22.908;2023-02-04T02:49:31;92696.19;;;-0.99;80.08
45793;BME280;31495;42.740;22.908;2023-02-04T02:50:32;92678.06;;;-1.04;79.87
45793;BME280;31495;42.740;22.908;2023-02-04T02:51:32;92684.13;;;-0.97;79.75
45793;BME280;31495;42.740;22.908;2023-02-04T02:52:31;92711.38;;;-0.81;79.85
45793;BME280;31495;42.740;22.908;2023-02-04T02:53:30;92655.03;;;-1.11;79.45
45793;BME280;31495;42.740;22.908;2023-02-04T02:54:31;92713.59;;;-0.78;79.75
45793;BME280;31495;42.740;22.908;2023-02-04T02:55:31;92680.63;;;-1.04;79.64
45793;BME280;31495;42.740;22.908;2023-02-04T02:56:30;92701.00;;;-0.88;80.00
45793;BME280;31495;42.740;22.908;2023-02-04T02:57:30;92704.38;;;-0.79;80.30
45793;BME280;31495;42.740;22.908;2023-02-04T02:58:33;92710.56;;;-0.82;79.93
45793;BME280;31495;42.740;22.908;2023-02-04T02:59:34;92716.00;;;-0.77;80.17
45793;BME280;31495;42.740;22.908;2023-02-04T03:00:34;92673.81;;;-0.96;80.18
45793;BME280;31495;42.740;22.908;2023-02-04T03:01:33;92680.84;;;-0.89;80.36
45793;BME280;31495;42.740;22.908;2023-02-04T03:02:33;92707.25;;;-0.74;80.41
45793;BME280;31495;42.740;22.908;2023-02-04T03:03:35;92705.94;;;-0.52;78.77
45793;BME280;31495;42.740;22.908;2023-02-04T03:04:43;92701.72;;;-0.69;78.51
45793;BME280;31495;42.740;22.908;2023-02-04T03:05:45;92702.50;;;-0.69;78.80
45793;BME280;31495;42.740;22.908;2023-02-04T03:06:46;92693.31;;;-0.70;78.79
45793;BME280;31495;42.740;22.908;2023-02-04T03:07:46;92650.34;;;-0.98;78.73
45793;BME280;31495;42.740;22.908;2023-02-04T03:08:48;92687.94;;;-0.67;78.98
45793;BME280;31495;42.740;22.908;2023-02-04T03:09:49;92684.56;;;-0.67;79.18
45793;BME280;31495;42.740;22.908;2023-02-04T03:10:52;92692.91;;;-0.57;78.85
45793;BME280;31495;42.740;22.908;2023-02-04T03:11:52;92644.38;;;-0.80;78.34
45793;BME280;31495;42.740;22.908;2023-02-04T03:12:52;92682.03;;;-0.67;78.02
45793;BME280;31495;42.740;22.908;2023-02-04T03:13:52;92681.56;;;-0.71;77.90
45793;BME280;31495;42.740;22.908;2023-02-04T03:14:51;92692.06;;;-0.66;78.11
45793;BME280;31495;42.740;22.908;2023-02-04T03:15:51;92691.91;;;-0.64;78.20
45793;BME280;31495;42.740;22.908;2023-02-04T03:16:52;92632.38;;;-1.04;78.07
45793;BME280;31495;42.740;22.908;2023-02-04T03:17:53;92660.19;;;-0.95;77.99
45793;BME280;31495;42.740;22.908;2023-02-04T03:18:55;92657.53;;;-0.85;78.03
45793;BME280;31495;42.740;22.908;2023-02-04T03:19:54;92697.78;;;-0.64;78.07
45793;BME280;31495;42.740;22.908;2023-02-04T03:20:54;92698.44;;;-0.62;78.15
45793;BME280;31495;42.740;22.908;2023-02-04T03:21:55;92696.69;;;-0.61;78.17
45793;BME280;31495;42.740;22.908;2023-02-04T03:22:55;92691.56;;;-0.69;77.79
45793;BME280;31495;42.740;22.908;2023-02-04T03:23:55;92677.81;;;-0.59;77.57
45793;BME280;31495;42.740;22.908;2023-02-04T03:24:54;92672.81;;;-0.77;77.66
45793;BME280;31495;42.740;22.908;2023-02-04T03:25:56;92683.63;;;-0.66;77.53
45793;BME280;31495;42.740;22.908;2023-02-04T03:26:56;92682.44;;;-0.54;77.83
45793;BME280;31495;42.740;22.908;2023-02-04T03:27:56;92693.25;;;-0.44;77.22
45793;BME280;31495;42.740;22.908;2023-02-04T03:28:57;92658.53;;;-0.69;77.41
45793;BME280;31495;42.740;22.908;2023-02-04T03:29:57;92652.66;;;-0.70;77.43
45793;BME280;31495;42.740;22.908;2023-02-04T03:30:57;92663.94;;;-0.64;77.49
45793;BME280;31495;42.740;22.908;2023-02-04T03:31:58;92690.88;;;-0.45;77.66
45793;BME280;31495;42.740;22.908;2023-02-04T03:33:02;92694.81;;;-0.43;77.71
45793;BME280;31495;42.740;22.908;2023-02-04T03:34:03;92690.41;;;-0.41;77.61
45793;BME280;31495;42.740;22.908;2023-02-04T03:35:03;92684.84;;;-0.44;77.89
45793;BME280;31495;42.740;22.908;2023-02-04T03:36:03;92674.00;;;-0.46;77.68
45793;BME280;31495;42.740;22.908;2023-02-04T03:37:02;92657.34;;;-0.49;77.28
45793;BME280;31495;42.740;22.908;2023-02-04T03:38:02;92651.97;;;-0.46;77.13
45793;BME280;31495;42.740;22.908;2023-02-04T03:39:01;92689.47;;;-0.23;77.27
45793;BME280;31495;42.740;22.908;2023-02-04T03:40:01;92664.53;;;-0.36;77.42
45793;BME280;31495;42.740;22.908;2023-02-04T03:41:01;92686.47;;;-0.19;76.85
45793;BME280;31495;42.740;22.908;2023-02-04T03:42:01;92654.00;;;-0.41;77.02
45793;BME280;31495;42.740;22.908;2023-02-04T03:43:00;92661.50;;;-0.31;76.49
45793;BME280;31495;42.740;22.908;2023-02-04T03:44:00;92655.28;;;-0.45;76.64
45793;BME280;31495;42.740;22.908;2023-02-04T03:44:59;92687.75;;;-0.23;76.98
45793;BME280;31495;42.740;22.908;2023-02-04T03:45:59;92673.56;;;-0.33;77.20
45793;BME280;31495;42.740;22.908;2023-02-04T03:46:58;92681.97;;;-0.41;77.66
45793;BME280;31495;42.740;22.908;2023-02-04T03:47:58;92651.91;;;-0.62;77.90
45793;BME280;31495;42.740;22.908;2023-02-04T03:48:57;92670.88;;;-0.40;78.11
45793;BME280;31495;42.740;22.908;2023-02-04T03:49:57;92675.78;;;-0.39;78.27
45793;BME280;31495;42.740;22.908;2023-02-04T03:50:57;92668.34;;;-0.32;78.24
45793;BME280;31495;42.740;22.908;2023-02-04T03:51:56;92628.09;;;-0.53;78.44
45793;BME280;31495;42.740;22.908;2023-02-04T03:52:55;92660.69;;;-0.40;79.02
45793;BME280;31495;42.740;22.908;2023-02-04T03:53:55;92637.66;;;-0.47;79.09
45793;BME280;31495;42.740;22.908;2023-02-04T03:54:54;92626.38;;;-0.52;79.35
45793;BME280;31495;42.740;22.908;2023-02-04T03:55:54;92635.75;;;-0.45;79.61
45793;BME280;31495;42.740;22.908;2023-02-04T03:56:53;92656.09;;;-0.37;79.88
45793;BME280;31495;42.740;22.908;2023-02-04T03:57:53;92652.31;;;-0.32;79.92
45793;BME280;31495;42.740;22.908;2023-02-04T03:58:52;92654.00;;;-0.41;80.14
45793;BME280;31495;42.740;22.908;2023-02-04T03:59:51;92650.06;;;-0.35;80.38
45793;BME280;31495;42.740;22.908;2023-02-04T04:00:50;92652.44;;;-0.42;80.63
45793;BME280;31495;42.740;22.908;2023-02-04T04:01:50;92638.75;;;-0.49;80.97
45793;BME280;31495;42.740;22.908;2023-02-04T04:02:51;92643.66;;;-0.56;81.14
45793;BME280;31495;42.740;22.908;2023-02-04T04:03:50;92638.09;;;-0.60;81.66
45793;BME280;31495;42.740;22.908;2023-02-04T04:04:49;92662.13;;;-0.46;81.38
45793;BME280;31495;42.740;22.908;2023-02-04T04:05:49;92654.97;;;-0.42;81.59
45793;BME280;31495;42.740;22.908;2023-02-04T04:06:48;92658.00;;;-0.39;81.67
45793;BME280;31495;42.740;22.908;2023-02-04T04:07:47;92607.91;;;-0.63;81.22
45793;BME280;31495;42.740;22.908;2023-02-04T04:08:47;92658.94;;;-0.40;81.31
45793;BME280;31495;42.740;22.908;2023-02-04T04:09:47;92658.47;;;-0.43;81.40
45793;BME280;31495;42.740;22.908;2023-02-04T04:10:46;92645.09;;;-0.53;81.58
45793;BME280;31495;42.740;22.908;2023-02-04T04:11:46;92621.25;;;-0.61;81.69
45793;BME280;31495;42.740;22.908;2023-02-04T04:12:45;92626.53;;;-0.54;81.85
45793;BME280;31495;42.740;22.908;2023-02-04T04:13:44;92655.94;;;-0.35;81.98
45793;BME280;31495;42.740;22.908;2023-02-04T04:14:44;92657.22;;;-0.31;81.83
45793;BME280;31495;42.740;22.908;2023-02-04T04:15:43;92646.09;;;-0.30;81.46
45793;BME280;31495;42.740;22.908;2023-02-04T04:16:43;92646.91;;;-0.29;81.55
45793;BME280;31495;42.740;22.908;2023-02-04T04:17:42;92610.78;;;-0.49;81.44
45793;BME280;31495;42.740;22.908;2023-02-04T04:18:42;92654.06;;;-0.16;81.33
45793;BME280;31495;42.740;22.908;2023-02-04T04:19:41;92622.09;;;-0.35;81.38
45793;BME280;31495;42.740;22.908;2023-02-04T04:20:42;92648.34;;;-0.10;81.26
45793;BME280;31495;42.740;22.908;2023-02-04T04:21:42;92646.63;;;-0.10;81.34
45793;BME280;31495;42.740;22.908;2023-02-04T04:22:41;92637.22;;;-0.17;81.44
45793;BME280;31495;42.740;22.908;2023-02-04T04:23:41;92645.19;;;-0.12;81.63
45793;BME280;31495;42.740;22.908;2023-02-04T04:24:40;92623.38;;;-0.23;81.26
45793;BME280;31495;42.740;22.908;2023-02-04T04:25:41;92651.06;;;-0.04;81.58
45793;BME280;31495;42.740;22.908;2023-02-04T04:26:40;92645.97;;;-0.12;81.25
45793;BME280;31495;42.740;22.908;2023-02-04T04:27:40;92655.66;;;-0.07;81.21
45793;BME280;31495;42.740;22.908;2023-02-04T04:28:39;92610.34;;;-0.37;81.23
45793;BME280;31495;42.740;22.908;2023-02-04T04:29:38;92605.56;;;-0.40;81.35
45793;BME280;31495;42.740;22.908;2023-02-04T04:30:38;92653.13;;;0.01;81.49
45793;BME280;31495;42.740;22.908;2023-02-04T04:31:37;92646.13;;;0.03;81.38
45793;BME280;31495;42.740;22.908;2023-02-04T04:32:37;92649.97;;;0.07;81.17
45793;BME280;31495;42.740;22.908;2023-02-04T04:33:36;92628.63;;;-0.16;81.50
45793;BME280;31495;42.740;22.908;2023-02-04T04:34:37;92643.88;;;-0.16;81.80
45793;BME280;31495;42.740;22.908;2023-02-04T04:35:36;92609.41;;;-0.35;81.99
45793;BME280;31495;42.740;22.908;2023-02-04T04:36:36;92658.22;;;0.01;82.08
45793;BME280;31495;42.740;22.908;2023-02-04T04:37:36;92649.94;;;-0.09;82.32
45793;BME280;31495;42.740;22.908;2023-02-04T04:38:35;92656.59;;;-0.08;82.76
45793;BME280;31495;42.740;22.908;2023-02-04T04:39:34;92613.69;;;-0.44;82.81
45793;BME280;31495;42.740;22.908;2023-02-04T04:40:34;92656.13;;;-0.12;83.06
45793;BME280;31495;42.740;22.908;2023-02-04T04:41:33;92657.13;;;-0.05;83.13
45793;BME280;31495;42.740;22.908;2023-02-04T04:42:33;92651.53;;;-0.08;83.11
45793;BME280;31495;42.740;22.908;2023-02-04T04:43:32;92618.78;;;-0.36;83.04
45793;BME280;31495;42.740;22.908;2023-02-04T04:44:32;92647.41;;;-0.17;83.15
45793;BME280;31495;42.740;22.908;2023-02-04T04:45:31;92611.16;;;-0.36;83.15
45793;BME280;31495;42.740;22.908;2023-02-04T04:46:30;92655.66;;;-0.07;83.18
45793;BME280;31495;42.740;22.908;2023-02-04T04:47:30;92662.97;;;-0.12;83.18
45793;BME280;31495;42.740;22.908;2023-02-04T04:48:29;92667.44;;;-0.14;83.37
45793;BME280;31495;42.740;22.908;2023-02-04T04:49:28;92671.41;;;-0.12;83.09
45793;BME280;31495;42.740;22.908;2023-02-04T04:50:28;92676.66;;;-0.05;83.19
45793;BME280;31495;42.740;22.908;2023-02-04T04:51:27;92617.31;;;-0.47;83.24
45793;BME280;31495;42.740;22.908;2023-02-04T04:52:29;92678.53;;;-0.24;83.86
45793;BME280;31495;42.740;22.908;2023-02-04T04:53:29;92637.63;;;-0.55;84.03
45793;BME280;31495;42.740;22.908;2023-02-04T04:54:28;92680.28;;;-0.24;84.20
45793;BME280;31495;42.740;22.908;2023-02-04T04:55:28;92682.50;;;-0.29;84.35
45793;BME280;31495;42.740;22.908;2023-02-04T04:56:27;92689.78;;;-0.34;84.79
45793;BME280;31495;42.740;22.908;2023-02-04T04:57:26;92690.59;;;-0.34;84.61
45793;BME280;31495;42.740;22.908;2023-02-04T04:58:26;92694.38;;;-0.38;85.05
45793;BME280;31495;42.740;22.908;2023-02-04T04:59:25;92684.63;;;-0.51;85.45
45793;BME280;31495;42.740;22.908;2023-02-04T05:00:25;92665.38;;;-0.70;85.88
45793;BME280;31495;42.740;22.908;2023-02-04T05:01:24;92688.59;;;-0.57;86.17
45793;BME280;31495;42.740;22.908;2023-02-04T05:02:24;92666.00;;;-0.68;86.31
45793;BME280;31495;42.740;22.908;2023-02-04T05:03:23;92656.97;;;-0.70;86.31
45793;BME280;31495;42.740;22.908;2023-02-04T05:04:23;92693.22;;;-0.52;86.35
45793;BME280;31495;42.740;22.908;2023-02-04T05:05:22;92697.06;;;-0.40;86.19
45793;BME280;31495;42.740;22.908;2023-02-04T05:06:22;92667.50;;;-0.49;85.90
45793;BME280;31495;42.740;22.908;2023-02-04T05:07:23;92655.56;;;-0.57;85.70
45793;BME280;31495;42.740;22.908;2023-02-04T05:08:23;92698.88;;;-0.24;85.86
45793;BME280;31495;42.740;22.908;2023-02-04T05:09:22;92696.63;;;-0.27;85.91
45793;BME280;31495;42.740;22.908;2023-02-04T05:10:22;92699.66;;;-0.23;85.80
45793;BME280;31495;42.740;22.908;2023-02-04T05:11:21;92691.25;;;-0.24;85.95
45793;BME280;31495;42.740;22.908;2023-02-04T05:12:21;92684.72;;;-0.26;85.80
45793;BME280;31495;42.740;22.908;2023-02-04T05:13:20;92656.88;;;-0.44;85.89
45793;BME280;31495;42.740;22.908;2023-02-04T05:14:22;92688.03;;;-0.34;86.16
45793;BME280;31495;42.740;22.908;2023-02-04T05:15:21;92702.69;;;-0.28;86.22